KECG

Elizabeth City CG Air Station / Rgnl Airport

Elizabeth City, North Carolina, USA
METAR KECG 140454Z 35011KT 10SM -RA FEW036 BKN085 OVC110 09/07 A3022 RMK AO2 RAB00 SLP234 P0001 T00940067 402060094
Observed Flight Rules
Nov-14 @ 04:54 UTC (21 minutes ago) Visual Flight Rules
Wind Visibility Clouds Conditions
350° at 11 knots 10 miles
  • Few at 3,600' AGL
  • Broken at 8,500' AGL
  • Overcast at 11,000' AGL
  • Light Rain
Temperatures Readings Precipitation
Current 9°C / 48°F
Dewpoint 7°C / 45°F
Humidity 87%
Altimeter 30.22" Hg
Pressure 1023.4 hPa
Elevation 11
Current Rain 0.01
METAR KECG 140454Z 35011KT 10SM -RA FEW036 BKN085 OVC110 09/07 A3022 RMK AO2 RAB00 SLP234 P0001 T00940067 402060094
Observed Flight Rules
Nov-14 @ 04:54 UTC
(21 minutes ago)
VFR
Wind Visibility
350° at 11 knots 10 miles
Clouds
  • Few at 3,600' AGL
  • Broken at 8,500' AGL
  • Overcast at 11,000' AGL
Conditions
  • Light Rain
Temperature Dewpoint
9°C / 48°F 7°C / 45°F
Humidity Altimeter Pressure
87% 30.22" Hg 1023.4 hPa
Current Rain
0.01